オウル の空港の天気 - METARとTAF

オウル空港 ( EFOU / OUL ) - フィンランド Oulunsalo
飛行場実況気象(Metar)
観測時間07/29 06:20 EEST (07/29 03:20 UTC)
風向・風速南東 3m/s
視程10km以上
天気現象
なし
気温17℃
湿度72%
気圧1000hPa
METAREFOU 290320Z AUTO 13006KT CAVOK 17/12 Q1000
過去の天気等 Google飛行場航空写真 Wunderground天気予報

過去48時間のMETAR

飛行場予報(TAF)
発表時間: 7/29 05:29 EEST (7/29 02:29 UTC)
予報対象時間: 29日6時 EEST ~ 30日6時 EEST
風向・風速南南東 3m/s
視程10km以上
なし
29日13時 EEST ~ 29日21時 EEST に一時的に
天気現象強い雷雨
全天の4割程度の積乱雲 雲底高度 1220m
29日14時 EEST ~ 29日18時 EEST に 確率 30% で一時的に
視程3000m
30日3時 EEST から 確率 40% で
全天の8割程度の雲 雲底高度 120m
TAF EFOU 290229Z 2903/3003 15005KT CAVOK
TEMPO 2910/2918 +TSRA SCT040CB
PROB30 TEMPO 2911/2915 3000
PROB40 3000/3003 BKN004